createdAt,value
2017-03-20T00:00:32.687Z,18.44
2017-03-20T00:01:13.380Z,18.4
2017-03-20T00:01:54.021Z,18.49
2017-03-20T00:02:34.676Z,18.37
2017-03-20T00:03:15.304Z,18.42
2017-03-20T00:03:55.944Z,18.4
2017-03-20T00:04:36.601Z,18.43
2017-03-20T00:05:17.318Z,18.42
2017-03-20T00:05:57.960Z,18.4
2017-03-20T00:06:38.601Z,18.4
2017-03-20T00:07:19.307Z,18.5
2017-03-20T00:07:59.958Z,18.47
2017-03-20T00:08:40.599Z,18.46
2017-03-20T00:09:21.274Z,18.5
2017-03-20T00:10:01.917Z,18.5
2017-03-20T00:10:42.548Z,18.47
2017-03-20T00:11:23.235Z,18.55
2017-03-20T00:12:03.848Z,18.43
2017-03-20T00:12:44.485Z,18.42
2017-03-20T00:13:25.124Z,18.52
2017-03-20T00:14:05.751Z,18.52
2017-03-20T00:14:46.383Z,18.4
2017-03-20T00:15:27.014Z,18.4
2017-03-20T00:16:07.647Z,18.44
2017-03-20T00:16:48.343Z,18.44
2017-03-20T00:17:29.019Z,18.42
2017-03-20T00:18:09.652Z,18.47
2017-03-20T00:18:50.304Z,18.4
2017-03-20T00:19:30.937Z,18.5
2017-03-20T00:20:11.570Z,18.52
2017-03-20T00:20:52.205Z,18.54
2017-03-20T00:21:32.830Z,18.55
2017-03-20T00:22:13.464Z,18.39
2017-03-20T00:22:54.195Z,18.43
2017-03-20T00:23:34.824Z,18.46
2017-03-20T00:24:15.463Z,18.4
2017-03-20T00:24:56.087Z,18.4
2017-03-20T00:25:36.718Z,18.42
2017-03-20T00:26:17.353Z,18.43
2017-03-20T00:26:58.010Z,18.44
2017-03-20T00:27:38.678Z,18.37
2017-03-20T00:28:19.305Z,18.4
2017-03-20T00:28:59.981Z,18.46
2017-03-20T00:29:40.639Z,18.39
2017-03-20T00:30:21.265Z,18.4
2017-03-20T00:31:01.907Z,18.46
2017-03-20T00:31:42.545Z,18.42
2017-03-20T00:32:23.178Z,18.4
2017-03-20T00:33:03.815Z,18.44
2017-03-20T00:33:44.506Z,18.43
2017-03-20T00:34:25.139Z,18.36
2017-03-20T00:35:05.772Z,18.4
2017-03-20T00:35:46.424Z,18.44
2017-03-20T00:36:27.061Z,18.47
2017-03-20T00:37:07.741Z,18.43
2017-03-20T00:37:48.384Z,18.39
2017-03-20T00:38:29.023Z,18.43
2017-03-20T00:39:09.709Z,18.36
2017-03-20T00:39:50.339Z,18.4
2017-03-20T00:40:30.970Z,18.39
2017-03-20T00:41:11.608Z,18.42
2017-03-20T00:41:52.241Z,18.47
2017-03-20T00:42:32.875Z,18.49
2017-03-20T00:43:13.580Z,18.44
2017-03-20T00:43:54.247Z,18.46
2017-03-20T00:44:34.872Z,18.4
2017-03-20T00:45:15.499Z,18.4
2017-03-20T00:45:56.176Z,18.47
2017-03-20T00:46:36.818Z,18.43
2017-03-20T00:47:17.510Z,18.43
2017-03-20T00:47:58.135Z,18.4
2017-03-20T00:48:38.780Z,18.46
2017-03-20T00:49:19.411Z,18.36
2017-03-20T00:50:00.043Z,18.42
2017-03-20T00:50:40.684Z,18.37
2017-03-20T00:51:21.384Z,18.36
2017-03-20T00:52:02.116Z,18.54
2017-03-20T00:52:42.749Z,18.4
2017-03-20T00:53:23.458Z,18.39
2017-03-20T00:54:04.108Z,18.37
2017-03-20T00:54:44.736Z,18.39
2017-03-20T00:55:25.379Z,18.36
2017-03-20T00:56:05.997Z,18.4
2017-03-20T00:56:46.632Z,18.44
2017-03-20T00:57:27.362Z,18.34
2017-03-20T00:58:08.017Z,18.43
2017-03-20T00:58:48.689Z,18.4
2017-03-20T00:59:29.296Z,18.47
2017-03-20T01:00:09.975Z,18.5
2017-03-20T01:00:50.601Z,18.42
2017-03-20T01:01:31.251Z,18.52
2017-03-20T01:02:11.895Z,18.44
2017-03-20T01:02:52.525Z,18.44
2017-03-20T01:03:33.157Z,18.43
2017-03-20T01:04:13.850Z,18.5
2017-03-20T01:04:54.486Z,18.39
2017-03-20T01:05:35.123Z,18.5
2017-03-20T01:06:15.761Z,18.39
2017-03-20T01:06:56.399Z,18.4
2017-03-20T01:07:37.028Z,18.5
2017-03-20T01:08:17.651Z,18.4
2017-03-20T01:08:58.279Z,18.37
2017-03-20T01:09:39.035Z,18.47
2017-03-20T01:10:19.667Z,18.47
2017-03-20T01:11:00.356Z,18.44
2017-03-20T01:11:40.991Z,18.4
2017-03-20T01:12:21.630Z,18.46
2017-03-20T01:13:02.261Z,18.36
2017-03-20T01:13:42.878Z,18.4
2017-03-20T01:14:23.571Z,18.4
2017-03-20T01:15:04.196Z,18.44
2017-03-20T01:15:44.829Z,18.44
2017-03-20T01:16:25.507Z,18.47
2017-03-20T01:17:06.145Z,18.43
2017-03-20T01:17:46.826Z,18.4
2017-03-20T01:18:27.465Z,18.44
2017-03-20T01:19:08.088Z,18.37
2017-03-20T01:19:48.720Z,18.37
2017-03-20T01:20:29.374Z,18.39
2017-03-20T01:21:10.019Z,18.37
2017-03-20T01:21:50.645Z,18.47
2017-03-20T01:22:31.279Z,18.47
2017-03-20T01:23:11.914Z,18.42
2017-03-20T01:23:52.539Z,18.39
2017-03-20T01:24:33.175Z,18.39
2017-03-20T01:25:13.804Z,18.39
2017-03-20T01:25:54.498Z,18.4
2017-03-20T01:26:35.177Z,18.34
2017-03-20T01:27:15.827Z,18.4
2017-03-20T01:27:56.509Z,18.47
2017-03-20T01:28:37.163Z,18.39
2017-03-20T01:29:17.814Z,18.43
2017-03-20T01:29:58.504Z,18.4
2017-03-20T01:30:39.219Z,18.42
2017-03-20T01:31:19.846Z,18.4
2017-03-20T01:32:00.499Z,18.42
2017-03-20T01:32:41.142Z,18.43
2017-03-20T01:33:21.779Z,18.39
2017-03-20T01:34:02.424Z,18.34
2017-03-20T01:34:43.066Z,18.43
2017-03-20T01:35:23.702Z,18.42
2017-03-20T01:36:04.323Z,18.36
2017-03-20T01:36:44.950Z,18.34
2017-03-20T01:37:25.586Z,18.33
2017-03-20T01:38:06.240Z,18.4
2017-03-20T01:38:46.962Z,18.42
2017-03-20T01:39:27.591Z,18.4
2017-03-20T01:40:08.217Z,18.39
2017-03-20T01:40:48.850Z,18.42
2017-03-20T01:41:29.544Z,18.4
2017-03-20T01:42:10.164Z,18.39
2017-03-20T01:42:50.869Z,18.37
2017-03-20T01:43:31.501Z,18.34
2017-03-20T01:44:12.129Z,18.37
2017-03-20T01:44:52.767Z,18.37
2017-03-20T01:45:33.407Z,18.36
2017-03-20T01:46:14.032Z,18.4
2017-03-20T01:46:54.744Z,18.39
2017-03-20T01:47:35.380Z,18.46
2017-03-20T01:48:16.011Z,18.39
2017-03-20T01:48:56.646Z,18.39
2017-03-20T01:49:37.342Z,18.4
2017-03-20T01:50:18.001Z,18.4
2017-03-20T01:50:58.629Z,18.39
2017-03-20T01:51:39.296Z,18.39
2017-03-20T01:52:19.921Z,18.39
2017-03-20T01:53:00.600Z,18.33
2017-03-20T01:53:41.269Z,18.4
2017-03-20T01:54:21.910Z,18.42
2017-03-20T01:55:02.580Z,18.36
2017-03-20T01:55:43.223Z,18.39
2017-03-20T01:56:23.846Z,18.4
2017-03-20T01:57:04.455Z,18.42
2017-03-20T01:57:45.088Z,18.39
2017-03-20T01:58:25.731Z,18.46
2017-03-20T01:59:06.352Z,18.39
2017-03-20T01:59:47.007Z,18.37
2017-03-20T02:00:27.635Z,18.39
2017-03-20T02:01:08.262Z,18.36
2017-03-20T02:01:48.899Z,18.33
2017-03-20T02:02:29.537Z,18.39
2017-03-20T02:03:10.201Z,18.42
2017-03-20T02:03:50.855Z,18.42
2017-03-20T02:04:31.461Z,18.39
2017-03-20T02:05:12.095Z,18.43
2017-03-20T02:05:52.718Z,18.4
2017-03-20T02:06:33.358Z,18.42
2017-03-20T02:07:14.028Z,18.39
2017-03-20T02:07:54.656Z,18.34
2017-03-20T02:08:35.379Z,18.39
2017-03-20T02:09:16.025Z,18.39
2017-03-20T02:09:56.664Z,18.37
2017-03-20T02:10:37.289Z,18.4
2017-03-20T02:11:17.911Z,18.39
2017-03-20T02:11:58.543Z,18.37
2017-03-20T02:12:39.204Z,18.39
2017-03-20T02:13:19.904Z,18.44
2017-03-20T02:14:00.539Z,18.37
2017-03-20T02:14:41.166Z,18.43
2017-03-20T02:15:21.831Z,18.25
2017-03-20T02:16:02.491Z,18.37
2017-03-20T02:16:43.078Z,18.42
2017-03-20T02:17:23.762Z,18.39
2017-03-20T02:18:04.398Z,18.31
2017-03-20T02:18:45.023Z,18.36
2017-03-20T02:19:25.661Z,18.4
2017-03-20T02:20:06.289Z,18.31
2017-03-20T02:20:46.995Z,18.34
2017-03-20T02:21:27.625Z,18.42
2017-03-20T02:22:08.265Z,18.39
2017-03-20T02:22:48.888Z,18.33
2017-03-20T02:23:29.517Z,18.39
2017-03-20T02:24:10.146Z,18.37
2017-03-20T02:24:50.856Z,18.4
2017-03-20T02:25:31.585Z,18.31
2017-03-20T02:26:12.237Z,18.42
2017-03-20T02:26:52.885Z,18.37
2017-03-20T02:27:33.550Z,18.34
2017-03-20T02:28:14.176Z,18.33
2017-03-20T02:28:54.805Z,18.37
2017-03-20T02:29:35.517Z,18.37
2017-03-20T02:30:16.148Z,18.37
2017-03-20T02:30:56.775Z,18.39
2017-03-20T02:31:37.452Z,18.33
2017-03-20T02:32:18.083Z,18.34
2017-03-20T02:32:58.727Z,18.37
2017-03-20T02:33:39.375Z,18.4
2017-03-20T02:34:20.050Z,18.39
2017-03-20T02:35:00.690Z,18.43
2017-03-20T02:35:41.398Z,18.36
2017-03-20T02:36:22.033Z,18.27
2017-03-20T02:37:02.684Z,18.39
2017-03-20T02:37:43.307Z,18.43
2017-03-20T02:38:23.978Z,18.37
2017-03-20T02:39:04.616Z,18.31
2017-03-20T02:39:45.254Z,18.31
2017-03-20T02:40:25.897Z,18.37
2017-03-20T02:41:06.512Z,18.29
2017-03-20T02:41:47.189Z,18.25
2017-03-20T02:42:27.822Z,18.36
2017-03-20T02:43:08.454Z,18.37
2017-03-20T02:43:49.116Z,18.36
2017-03-20T02:44:29.776Z,18.31
2017-03-20T02:45:10.421Z,18.34
2017-03-20T02:45:51.106Z,18.28
2017-03-20T02:46:31.773Z,18.37
2017-03-20T02:47:12.402Z,18.28
2017-03-20T02:47:53.107Z,18.36
2017-03-20T02:48:33.835Z,18.28
2017-03-20T02:49:14.463Z,18.27
2017-03-20T02:49:55.120Z,18.33
2017-03-20T02:50:35.787Z,18.27
2017-03-20T02:51:16.421Z,18.27
2017-03-20T02:51:57.134Z,18.33
2017-03-20T02:52:37.827Z,18.25
2017-03-20T02:53:18.529Z,18.25
2017-03-20T02:53:59.173Z,18.22
2017-03-20T02:54:39.798Z,18.24
2017-03-20T02:55:20.489Z,18.37
2017-03-20T02:56:01.132Z,18.34
2017-03-20T02:56:41.763Z,18.42
2017-03-20T02:57:22.452Z,18.29
2017-03-20T02:58:03.090Z,18.28
2017-03-20T02:58:43.742Z,18.25
2017-03-20T02:59:24.392Z,18.25
2017-03-20T03:00:05.022Z,18.4
2017-03-20T03:00:45.716Z,18.28
2017-03-20T03:01:26.441Z,18.33
2017-03-20T03:02:07.073Z,18.29
2017-03-20T03:02:47.723Z,18.27
2017-03-20T03:03:28.401Z,18.27
2017-03-20T03:04:09.032Z,18.39
2017-03-20T03:04:49.654Z,18.31
2017-03-20T03:05:30.295Z,18.28
2017-03-20T03:06:10.928Z,18.28
2017-03-20T03:06:51.602Z,18.29
2017-03-20T03:07:32.236Z,18.34
2017-03-20T03:08:12.870Z,18.22
2017-03-20T03:08:53.497Z,18.31
2017-03-20T03:09:34.226Z,18.34
2017-03-20T03:10:14.872Z,18.37
2017-03-20T03:10:55.518Z,18.22
2017-03-20T03:11:36.144Z,18.21
2017-03-20T03:12:16.787Z,18.31
2017-03-20T03:12:57.411Z,18.28
2017-03-20T03:13:38.046Z,18.31
2017-03-20T03:14:18.675Z,18.27
2017-03-20T03:14:59.322Z,18.29
2017-03-20T03:15:39.972Z,18.31
2017-03-20T03:16:20.610Z,18.22
2017-03-20T03:17:01.276Z,18.34
2017-03-20T03:17:41.904Z,18.28
2017-03-20T03:18:22.528Z,18.28
2017-03-20T03:19:03.189Z,18.28
2017-03-20T03:19:43.824Z,18.22
2017-03-20T03:20:24.444Z,18.28
2017-03-20T03:21:05.144Z,18.28
2017-03-20T03:21:45.840Z,18.28
2017-03-20T03:22:26.435Z,18.33
2017-03-20T03:23:07.063Z,18.37
2017-03-20T03:23:47.695Z,18.39
2017-03-20T03:24:28.327Z,18.37
2017-03-20T03:25:09.023Z,18.37
2017-03-20T03:25:49.802Z,18.29
2017-03-20T03:26:30.440Z,18.22
2017-03-20T03:27:11.166Z,18.27
2017-03-20T03:27:51.813Z,18.27
2017-03-20T03:28:32.432Z,18.31
2017-03-20T03:29:13.067Z,18.24
2017-03-20T03:29:53.723Z,18.28
2017-03-20T03:30:34.436Z,18.28
2017-03-20T03:31:14.995Z,18.29
2017-03-20T03:31:55.648Z,18.22
2017-03-20T03:32:36.289Z,18.28
2017-03-20T03:33:16.966Z,18.29
2017-03-20T03:33:57.594Z,18.37
2017-03-20T03:34:38.225Z,18.27
2017-03-20T03:35:18.859Z,18.33
2017-03-20T03:35:59.497Z,18.28
2017-03-20T03:36:40.125Z,18.28
2017-03-20T03:37:20.823Z,18.29
2017-03-20T03:38:01.499Z,18.24
2017-03-20T03:38:42.139Z,18.27
2017-03-20T03:39:22.826Z,18.28
2017-03-20T03:40:03.500Z,18.25
2017-03-20T03:40:44.127Z,18.28
2017-03-20T03:41:24.750Z,18.29
2017-03-20T03:42:05.373Z,18.31
2017-03-20T03:42:45.996Z,18.25
2017-03-20T03:43:26.619Z,18.31
2017-03-20T03:44:07.241Z,18.24
2017-03-20T03:44:47.864Z,18.28
2017-03-20T03:45:28.501Z,18.22
2017-03-20T03:46:09.183Z,18.27
2017-03-20T03:46:49.814Z,18.25
2017-03-20T03:47:30.461Z,18.24
2017-03-20T03:48:11.095Z,18.22
2017-03-20T03:48:51.722Z,18.28
2017-03-20T03:49:32.370Z,18.28
2017-03-20T03:50:13.005Z,18.28
2017-03-20T03:50:53.634Z,18.33
2017-03-20T03:51:34.273Z,18.28
2017-03-20T03:52:14.897Z,18.25
2017-03-20T03:52:55.525Z,18.27
2017-03-20T03:53:36.245Z,18.29
2017-03-20T03:54:16.939Z,18.28
2017-03-20T03:54:57.564Z,18.28
2017-03-20T03:55:38.192Z,18.28
2017-03-20T03:56:18.897Z,18.29
2017-03-20T03:56:59.533Z,18.28
2017-03-20T03:57:40.186Z,18.31
2017-03-20T03:58:20.859Z,18.27
2017-03-20T03:59:01.485Z,18.28
2017-03-20T03:59:42.213Z,18.28
2017-03-20T04:00:22.890Z,18.27
2017-03-20T04:01:03.525Z,18.25
2017-03-20T04:01:44.184Z,18.28
2017-03-20T04:02:24.891Z,18.28
2017-03-20T04:03:05.592Z,18.27
2017-03-20T04:03:46.220Z,18.27
2017-03-20T04:04:26.886Z,18.28
2017-03-20T04:05:07.570Z,18.28
2017-03-20T04:05:48.218Z,18.28
2017-03-20T04:06:28.854Z,18.34
2017-03-20T04:07:09.486Z,18.25
2017-03-20T04:07:50.111Z,18.28
2017-03-20T04:08:30.788Z,18.21
2017-03-20T04:09:11.409Z,18.28
2017-03-20T04:09:52.029Z,18.28
2017-03-20T04:10:32.655Z,18.27
2017-03-20T04:11:13.349Z,18.28
2017-03-20T04:11:54.022Z,18.28
2017-03-20T04:12:34.657Z,18.27
2017-03-20T04:13:15.290Z,18.31
2017-03-20T04:13:55.933Z,18.34
2017-03-20T04:14:36.543Z,18.28
2017-03-20T04:15:17.238Z,18.22
2017-03-20T04:15:57.872Z,18.25
2017-03-20T04:16:38.605Z,18.31
2017-03-20T04:17:19.293Z,18.28
2017-03-20T04:17:59.908Z,18.28
2017-03-20T04:18:40.551Z,18.27
2017-03-20T04:19:21.185Z,18.24
2017-03-20T04:20:01.816Z,18.31
2017-03-20T04:20:42.451Z,18.22
2017-03-20T04:21:23.139Z,18.24
2017-03-20T04:22:03.770Z,18.27
2017-03-20T04:22:44.411Z,18.25
2017-03-20T04:23:25.036Z,18.27
2017-03-20T04:24:05.696Z,18.31
2017-03-20T04:24:46.294Z,18.27
2017-03-20T04:25:26.932Z,18.27
2017-03-20T04:26:07.576Z,18.27
2017-03-20T04:26:48.207Z,18.22
2017-03-20T04:27:28.830Z,18.29
2017-03-20T04:28:09.456Z,18.22
2017-03-20T04:28:50.092Z,18.25
2017-03-20T04:29:30.811Z,18.31
2017-03-20T04:30:11.464Z,18.33
2017-03-20T04:30:52.140Z,18.29
2017-03-20T04:31:32.822Z,18.29
2017-03-20T04:32:13.453Z,18.28
2017-03-20T04:32:54.069Z,18.36
2017-03-20T04:33:34.715Z,18.33
2017-03-20T04:34:15.343Z,18.27
2017-03-20T04:34:55.984Z,18.25
2017-03-20T04:35:36.632Z,18.29
2017-03-20T04:36:17.267Z,18.27
2017-03-20T04:36:57.922Z,18.27
2017-03-20T04:37:38.544Z,18.27
2017-03-20T04:38:19.184Z,18.22
2017-03-20T04:38:59.838Z,18.22
2017-03-20T04:39:40.471Z,18.22
2017-03-20T04:40:21.095Z,18.21
2017-03-20T04:41:01.715Z,18.27
2017-03-20T04:41:42.350Z,18.33
2017-03-20T04:42:22.975Z,18.25
2017-03-20T04:43:03.627Z,18.25
2017-03-20T04:43:44.262Z,18.22
2017-03-20T04:44:24.954Z,18.28
2017-03-20T04:45:05.578Z,18.22
2017-03-20T04:45:46.230Z,18.29
2017-03-20T04:46:26.858Z,18.28
2017-03-20T04:47:07.595Z,18.28
2017-03-20T04:47:48.259Z,18.27
2017-03-20T04:48:28.898Z,18.29
2017-03-20T04:49:09.530Z,18.27
2017-03-20T04:49:50.177Z,18.25
2017-03-20T04:50:30.800Z,18.27
2017-03-20T04:51:11.486Z,18.27
2017-03-20T04:51:52.125Z,18.33
2017-03-20T04:52:32.749Z,18.29
2017-03-20T04:53:13.390Z,18.27
2017-03-20T04:53:54.044Z,18.28
2017-03-20T04:54:34.676Z,18.27
2017-03-20T04:55:15.339Z,18.31
2017-03-20T04:55:56.022Z,18.31
2017-03-20T04:56:36.591Z,18.21
2017-03-20T04:57:17.221Z,18.27
2017-03-20T04:57:57.858Z,18.27
2017-03-20T04:58:38.586Z,18.24
2017-03-20T04:59:19.211Z,18.22
2017-03-20T04:59:59.820Z,18.27
2017-03-20T05:00:40.461Z,18.25
2017-03-20T05:01:21.192Z,18.28
2017-03-20T05:02:01.872Z,18.29
2017-03-20T05:02:42.496Z,18.28
2017-03-20T05:03:23.185Z,18.19
2017-03-20T05:04:03.834Z,18.28
2017-03-20T05:04:44.459Z,18.25
2017-03-20T05:05:25.144Z,18.21
2017-03-20T05:06:05.853Z,18.28
2017-03-20T05:06:46.481Z,18.28
2017-03-20T05:07:27.174Z,18.25
2017-03-20T05:08:07.903Z,18.29
2017-03-20T05:08:48.536Z,18.25
2017-03-20T05:09:29.219Z,18.21
2017-03-20T05:10:09.940Z,18.27
2017-03-20T05:10:50.710Z,18.22
2017-03-20T05:11:31.350Z,18.27
2017-03-20T05:12:11.996Z,18.25
2017-03-20T05:12:52.626Z,18.24
2017-03-20T05:13:33.254Z,18.27
2017-03-20T05:14:13.935Z,18.22
2017-03-20T05:14:54.561Z,18.18
2017-03-20T05:15:35.196Z,18.21
2017-03-20T05:16:16.604Z,18.27
2017-03-20T05:16:57.238Z,18.25
2017-03-20T05:17:37.871Z,18.21
2017-03-20T05:18:18.562Z,18.22
2017-03-20T05:18:59.191Z,18.29
2017-03-20T05:19:39.833Z,18.22
2017-03-20T05:20:20.520Z,18.21
2017-03-20T05:21:01.146Z,18.27
2017-03-20T05:21:41.771Z,18.22
2017-03-20T05:22:22.398Z,18.27
2017-03-20T05:23:03.057Z,18.25
2017-03-20T05:23:43.717Z,18.24
2017-03-20T05:24:24.339Z,18.24
2017-03-20T05:25:04.971Z,18.21
2017-03-20T05:25:45.625Z,18.21
2017-03-20T05:26:26.357Z,18.19
2017-03-20T05:27:06.988Z,18.27
2017-03-20T05:27:47.673Z,18.19
2017-03-20T05:28:28.333Z,18.18
2017-03-20T05:29:08.963Z,18.17
2017-03-20T05:29:49.587Z,18.21
2017-03-20T05:30:30.226Z,18.15
2017-03-20T05:31:10.859Z,18.22
2017-03-20T05:31:51.490Z,18.17
2017-03-20T05:32:32.177Z,18.19
2017-03-20T05:33:12.803Z,18.17
2017-03-20T05:33:53.560Z,18.21
2017-03-20T05:34:34.203Z,18.21
2017-03-20T05:35:14.825Z,18.24
2017-03-20T05:35:55.505Z,18.21
2017-03-20T05:36:36.182Z,18.19
2017-03-20T05:37:16.810Z,18.19
2017-03-20T05:37:57.475Z,18.18
2017-03-20T05:38:38.107Z,18.22
2017-03-20T05:39:18.737Z,18.18
2017-03-20T05:39:59.371Z,18.22
2017-03-20T05:40:40.058Z,18.18
2017-03-20T05:41:20.692Z,18.24
2017-03-20T05:42:01.324Z,18.24
2017-03-20T05:42:41.968Z,18.19
2017-03-20T05:43:22.598Z,18.21
2017-03-20T05:44:03.237Z,18.22
2017-03-20T05:44:43.919Z,18.13
2017-03-20T05:45:24.564Z,18.13
2017-03-20T05:46:05.250Z,18.18
2017-03-20T05:46:45.877Z,18.18
2017-03-20T05:47:26.572Z,18.19
2017-03-20T05:48:07.158Z,18.21
2017-03-20T05:48:47.909Z,18.25
2017-03-20T05:49:28.567Z,18.22
2017-03-20T05:50:09.197Z,18.21
2017-03-20T05:50:49.921Z,18.18
2017-03-20T05:51:30.672Z,18.18
2017-03-20T05:52:11.296Z,18.13
2017-03-20T05:52:51.945Z,18.13
2017-03-20T05:53:32.615Z,18.09
2017-03-20T05:54:13.251Z,18.21
2017-03-20T05:54:53.884Z,18.24
2017-03-20T05:55:34.510Z,18.19
2017-03-20T05:56:15.143Z,18.18
2017-03-20T05:56:55.774Z,18.13
2017-03-20T05:57:36.408Z,18.18
2017-03-20T05:58:17.038Z,18.13
2017-03-20T05:58:57.726Z,18.17
2017-03-20T05:59:38.359Z,18.13
2017-03-20T06:00:18.988Z,18.17
2017-03-20T06:00:59.617Z,18.1
2017-03-20T06:01:40.285Z,18.18
2017-03-20T06:02:20.920Z,18.09
2017-03-20T06:03:01.551Z,18.15
2017-03-20T06:03:42.181Z,18.07
2017-03-20T06:04:22.805Z,18.09
2017-03-20T06:05:03.440Z,18.13
2017-03-20T06:05:44.118Z,18.07
2017-03-20T06:06:24.745Z,18.13
2017-03-20T06:07:05.426Z,18.09
2017-03-20T06:07:46.100Z,18.1
2017-03-20T06:08:26.729Z,18.18
2017-03-20T06:09:07.411Z,18.09
2017-03-20T06:09:48.054Z,18.1
2017-03-20T06:10:28.700Z,18.07
2017-03-20T06:11:09.344Z,18.06
2017-03-20T06:11:50.103Z,18.06
2017-03-20T06:12:30.729Z,18.09
2017-03-20T06:13:11.365Z,18.18
2017-03-20T06:13:51.994Z,18.09
2017-03-20T06:14:32.622Z,18.09
2017-03-20T06:15:13.249Z,18.17
2017-03-20T06:15:53.880Z,18.12
2017-03-20T06:16:34.529Z,18.1
2017-03-20T06:17:15.198Z,18.22
2017-03-20T06:17:55.917Z,18.12
2017-03-20T06:18:36.551Z,18.19
2017-03-20T06:19:17.207Z,18.1
2017-03-20T06:19:57.837Z,18.06
2017-03-20T06:20:38.471Z,18.17
2017-03-20T06:21:19.223Z,18.17
2017-03-20T06:21:59.857Z,18.12
2017-03-20T06:22:40.495Z,18.04
2017-03-20T06:23:21.221Z,18.04
2017-03-20T06:24:02.776Z,18.24
2017-03-20T06:24:43.411Z,18.12
2017-03-20T06:25:24.782Z,18.07
2017-03-20T06:26:05.412Z,18.1
2017-03-20T06:26:46.032Z,18.09
2017-03-20T06:27:26.673Z,18.21
2017-03-20T06:28:07.299Z,18.1
2017-03-20T06:28:47.935Z,18.13
2017-03-20T06:29:28.572Z,18.13
2017-03-20T06:30:09.205Z,18.13
2017-03-20T06:30:49.958Z,18.07
2017-03-20T06:31:30.599Z,18.12
2017-03-20T06:32:11.251Z,18.06
2017-03-20T06:32:51.905Z,18.13
2017-03-20T06:33:32.552Z,18.18
2017-03-20T06:34:13.220Z,18.13
2017-03-20T06:34:53.840Z,18.15
2017-03-20T06:35:34.477Z,18.12
2017-03-20T06:36:15.107Z,18.13
2017-03-20T06:36:55.738Z,18.15
2017-03-20T06:37:36.362Z,18.09
2017-03-20T06:38:16.985Z,18.12
2017-03-20T06:38:57.676Z,18.12
2017-03-20T06:39:38.309Z,18.03
2017-03-20T06:40:18.940Z,18.02
2017-03-20T06:40:59.570Z,18.06
2017-03-20T06:41:40.252Z,18.09
2017-03-20T06:42:20.883Z,18.13
2017-03-20T06:43:01.531Z,18.1
2017-03-20T06:43:42.171Z,18.13
2017-03-20T06:44:22.799Z,18.06
2017-03-20T06:45:03.526Z,18.04
2017-03-20T06:45:44.283Z,18.04
2017-03-20T06:46:24.963Z,18.12
2017-03-20T06:47:05.590Z,18.18
2017-03-20T06:47:46.217Z,18
2017-03-20T06:48:26.852Z,18.02
2017-03-20T06:49:07.479Z,18.09
2017-03-20T06:49:48.166Z,18.03
2017-03-20T06:50:28.795Z,18.17
2017-03-20T06:51:09.426Z,18.1
2017-03-20T06:51:50.077Z,18.12
2017-03-20T06:52:30.711Z,18.15
2017-03-20T06:53:11.339Z,18.13
2017-03-20T06:53:51.983Z,18.1
2017-03-20T06:54:32.603Z,18.1
2017-03-20T06:55:13.222Z,18.13
2017-03-20T06:55:53.850Z,18.1
2017-03-20T06:56:34.475Z,18.15
2017-03-20T06:57:15.107Z,18.15
2017-03-20T06:57:55.734Z,18.15
2017-03-20T06:58:36.365Z,18.06
2017-03-20T06:59:17.000Z,18.13
2017-03-20T06:59:57.652Z,18.1
2017-03-20T07:00:38.274Z,18.04
2017-03-20T07:01:18.903Z,18.13
2017-03-20T07:01:59.539Z,18.19
2017-03-20T07:02:40.155Z,18.18
2017-03-20T07:03:20.856Z,18.09
2017-03-20T07:04:01.482Z,18.15
2017-03-20T07:04:42.130Z,18.03
2017-03-20T07:05:22.754Z,18.13
2017-03-20T07:06:03.382Z,18.03
2017-03-20T07:06:44.037Z,18.18
2017-03-20T07:07:24.673Z,18.02
2017-03-20T07:08:05.302Z,18.17
2017-03-20T07:08:45.936Z,18.13
2017-03-20T07:09:26.648Z,18.12
2017-03-20T07:10:07.271Z,18.13
2017-03-20T07:10:47.899Z,18.06
2017-03-20T07:11:28.526Z,18.1
2017-03-20T07:12:09.154Z,18.13
2017-03-20T07:12:49.797Z,18.13
2017-03-20T07:13:30.474Z,18.1
2017-03-20T07:14:11.171Z,18.17
2017-03-20T07:14:51.823Z,18.17
2017-03-20T07:15:32.467Z,18.13
2017-03-20T07:16:13.091Z,18.15
2017-03-20T07:16:53.727Z,18.06
2017-03-20T07:17:34.464Z,18.18
2017-03-20T07:18:15.145Z,18.12
2017-03-20T07:18:55.773Z,18.07
2017-03-20T07:19:36.391Z,18.22
2017-03-20T07:20:17.147Z,18.15
2017-03-20T07:20:57.773Z,18.09
2017-03-20T07:21:38.444Z,18.1
2017-03-20T07:22:19.071Z,18.09
2017-03-20T07:22:59.704Z,18.1
2017-03-20T07:23:40.329Z,18.1
2017-03-20T07:24:21.045Z,18.06
2017-03-20T07:25:01.678Z,18.12
2017-03-20T07:25:42.379Z,18.17
2017-03-20T07:26:23.072Z,18.06
2017-03-20T07:27:03.709Z,18.02
2017-03-20T07:27:44.334Z,18.17
2017-03-20T07:28:24.955Z,18.04
2017-03-20T07:29:05.581Z,18.15
2017-03-20T07:29:46.207Z,18.1
2017-03-20T07:30:26.847Z,18.09
2017-03-20T07:31:07.476Z,18.1
2017-03-20T07:31:48.099Z,18.12
2017-03-20T07:32:28.812Z,18.17
2017-03-20T07:33:09.450Z,18.09
2017-03-20T07:33:50.106Z,18.03
2017-03-20T07:34:30.759Z,18.18
2017-03-20T07:35:11.404Z,18.12
2017-03-20T07:35:52.023Z,18.18
2017-03-20T07:36:32.702Z,18.15
2017-03-20T07:37:13.329Z,18.18
2017-03-20T07:37:53.956Z,18.07
2017-03-20T07:38:34.622Z,18.15
2017-03-20T07:39:15.247Z,18.1
2017-03-20T07:39:55.895Z,18.12
2017-03-20T07:40:36.566Z,18.09
2017-03-20T07:41:17.199Z,18.07
2017-03-20T07:41:57.929Z,18.1
2017-03-20T07:42:38.557Z,18.1
2017-03-20T07:43:19.201Z,18.12
2017-03-20T07:43:59.814Z,18.1
2017-03-20T07:44:40.441Z,18.13
2017-03-20T07:45:21.062Z,18.13
2017-03-20T07:46:01.710Z,18.03
2017-03-20T07:46:42.444Z,18.1
2017-03-20T07:47:23.070Z,18.12
2017-03-20T07:48:03.704Z,18.17
2017-03-20T07:48:44.331Z,18.17
2017-03-20T07:49:24.968Z,18.15
2017-03-20T07:50:05.635Z,18.07
2017-03-20T07:50:46.326Z,18.18
2017-03-20T07:51:26.955Z,18.07
2017-03-20T07:52:07.633Z,18.13
2017-03-20T07:52:48.325Z,18.04
2017-03-20T07:53:28.957Z,18.17
2017-03-20T07:54:09.594Z,18.17
2017-03-20T07:54:50.234Z,18.18
2017-03-20T07:55:30.860Z,18.17
2017-03-20T07:56:11.498Z,18.12
2017-03-20T07:56:52.238Z,18.15
2017-03-20T07:57:32.869Z,18.06
2017-03-20T07:58:13.502Z,18.03
2017-03-20T07:58:54.178Z,18.15
2017-03-20T07:59:34.835Z,18.13
2017-03-20T08:00:15.480Z,18.17
2017-03-20T08:00:56.141Z,18.04
2017-03-20T08:01:36.867Z,18.13
2017-03-20T08:02:17.517Z,18.04
2017-03-20T08:02:58.146Z,18.18
2017-03-20T08:03:38.820Z,18.1
2017-03-20T08:04:19.453Z,18.17
2017-03-20T08:05:00.087Z,18.06
2017-03-20T08:05:40.725Z,18.1
2017-03-20T08:06:21.348Z,18.04
2017-03-20T08:07:02.005Z,18.06
2017-03-20T08:07:42.698Z,18.12
2017-03-20T08:08:23.323Z,18.1
2017-03-20T08:09:03.958Z,18.03
2017-03-20T08:09:44.611Z,18.15
2017-03-20T08:10:25.244Z,18.13
2017-03-20T08:11:05.913Z,18.18
2017-03-20T08:11:46.555Z,18.12
2017-03-20T08:12:27.186Z,18.12
2017-03-20T08:13:07.868Z,18.18
2017-03-20T08:13:48.495Z,18.02
2017-03-20T08:14:29.125Z,18.02
2017-03-20T08:15:09.758Z,18.15
2017-03-20T08:15:50.387Z,18.13
2017-03-20T08:16:31.036Z,18.18
2017-03-20T08:17:11.720Z,18.19
2017-03-20T08:17:52.440Z,18.18
2017-03-20T08:18:33.061Z,18.17
2017-03-20T08:19:13.701Z,18.1
2017-03-20T08:19:54.337Z,18.1
2017-03-20T08:20:34.961Z,18.03
2017-03-20T08:21:15.596Z,18.06
2017-03-20T08:21:56.224Z,18.17
2017-03-20T08:22:36.871Z,18.07
2017-03-20T08:23:17.602Z,18.12
2017-03-20T08:23:58.258Z,18.15
2017-03-20T08:24:38.890Z,18.17
2017-03-20T08:25:19.521Z,18.09
2017-03-20T08:26:00.148Z,18.18
2017-03-20T08:26:40.780Z,18.15
2017-03-20T08:27:21.409Z,18.13
2017-03-20T08:28:02.088Z,18.15
2017-03-20T08:28:42.780Z,18.18
2017-03-20T08:29:23.408Z,18.06
2017-03-20T08:30:04.034Z,18.18
2017-03-20T08:30:44.661Z,18.21
2017-03-20T08:31:25.360Z,18.12
2017-03-20T08:32:06.044Z,18.09
2017-03-20T08:32:46.685Z,18.15
2017-03-20T08:33:27.310Z,18.15
2017-03-20T08:34:07.932Z,18.13
2017-03-20T08:34:48.556Z,18.19
2017-03-20T08:35:29.248Z,18.19
2017-03-20T08:36:09.889Z,18.15
2017-03-20T08:36:50.523Z,18.03
2017-03-20T08:37:31.230Z,18.06
2017-03-20T08:38:11.928Z,18.18
2017-03-20T08:38:52.551Z,18.1
2017-03-20T08:39:33.174Z,18.13
2017-03-20T08:40:13.828Z,18.17
2017-03-20T08:40:54.456Z,18.12
2017-03-20T08:41:35.144Z,18.07
2017-03-20T08:42:15.835Z,18.15
2017-03-20T08:42:56.461Z,18.15
2017-03-20T08:43:37.188Z,18.09
2017-03-20T08:44:17.824Z,18.1
2017-03-20T08:44:58.465Z,18.15
2017-03-20T08:45:39.845Z,18.19